Beach Haven, New Jersey
Current Conditions -  °F | °C
As of 12:54 AM on Saturday 20 Dec 2014 (Local Time) from KACY Reporting Station
Clear Clear  
Wind Chill: 26°   Ceiling: Unl
Heat Index: 26°   Visibility: 10mi
Dew Point: 20°   Wind: 3mph
Humidity: 78%   Direction: 290°WNW
Pressure: 30.2"   Gusts: NA
Location:  39.56°N, 74.24°W
Report Text: KACY 200554Z 29003KT 10SM CLR M03/M07 A3020 RMK AO2 SLP228 T10331067 11006 21044 50004
Loading
Personal Weather Stations






























Interactive Weather Map New forecast layout! Learn more

10-Day Weather Forecast

Advertisements
Track Severe Weather on mobile